createdAt,value
2022-12-16T00:01:37.577Z,-7.80
2022-12-16T00:04:07.697Z,-7.70
2022-12-16T00:06:38.700Z,-7.60
2022-12-16T00:09:08.677Z,-7.40
2022-12-16T00:11:41.209Z,-7.40
2022-12-16T00:14:11.174Z,-7.30
2022-12-16T00:16:41.261Z,-7.20
2022-12-16T00:19:11.188Z,-7.30
2022-12-16T00:21:41.170Z,-7.30
2022-12-16T00:24:11.071Z,-7.20
2022-12-16T00:26:43.621Z,-7.30
2022-12-16T00:29:13.883Z,-7.40
2022-12-16T00:31:48.367Z,-7.40
2022-12-16T00:34:18.702Z,-7.30
2022-12-16T00:36:48.601Z,-7.30
2022-12-16T00:39:18.560Z,-7.30
2022-12-16T00:41:51.120Z,-7.10
2022-12-16T00:44:21.800Z,-7.10
2022-12-16T00:46:51.644Z,-7.20
2022-12-16T00:49:21.719Z,-7.20
2022-12-16T00:51:51.691Z,-7.30
2022-12-16T00:54:21.656Z,-7.30
2022-12-16T00:56:54.150Z,-7.30
2022-12-16T00:59:25.074Z,-7.20
2022-12-16T01:01:55.101Z,-7.20
2022-12-16T01:04:26.775Z,-7.10
2022-12-16T01:06:57.087Z,-7.10
2022-12-16T01:09:27.245Z,-7.10
2022-12-16T01:11:59.848Z,-7.20
2022-12-16T01:14:29.761Z,-7.20
2022-12-16T01:16:59.599Z,-7.20
2022-12-16T01:19:29.627Z,-7.20
2022-12-16T01:21:59.584Z,-7.20
2022-12-16T01:24:29.562Z,-7.20
2022-12-16T01:27:02.036Z,-7.20
2022-12-16T01:29:32.003Z,-7.10
2022-12-16T01:32:01.876Z,-7.10
2022-12-16T01:34:32.079Z,-7.10
2022-12-16T01:37:01.987Z,-7.10
2022-12-16T01:39:31.866Z,-7.10
2022-12-16T01:42:04.342Z,-7.20
2022-12-16T01:44:36.698Z,-7.10
2022-12-16T01:47:08.191Z,-7.10
2022-12-16T01:49:40.839Z,-7.10
2022-12-16T01:52:15.695Z,-7.20
2022-12-16T01:54:47.337Z,-7.10
2022-12-16T01:57:23.091Z,-7.10
2022-12-16T01:59:55.123Z,-7.00
2022-12-16T02:02:27.350Z,-6.90
2022-12-16T02:05:10.507Z,-7.00
2022-12-16T02:07:40.429Z,-7.10
2022-12-16T02:10:12.007Z,-7.10
2022-12-16T02:12:48.803Z,-7.00
2022-12-16T02:15:27.609Z,-7.00
2022-12-16T02:18:02.856Z,-6.90
2022-12-16T02:20:56.643Z,-6.70
2022-12-16T02:24:02.019Z,-6.60
2022-12-16T02:26:54.411Z,-6.70
2022-12-16T02:29:47.351Z,-6.80
2022-12-16T02:32:25.440Z,-6.80
2022-12-16T02:35:00.280Z,-6.80
2022-12-16T02:37:38.448Z,-6.80
2022-12-16T02:40:12.663Z,-6.90
2022-12-16T02:42:45.915Z,-6.80
2022-12-16T02:45:19.033Z,-6.70
2022-12-16T02:47:51.612Z,-6.70
2022-12-16T02:50:24.064Z,-6.70
2022-12-16T02:52:54.500Z,-6.70
2022-12-16T02:55:26.194Z,-6.70
2022-12-16T02:58:14.481Z,-6.70
2022-12-16T03:00:52.139Z,-6.70
2022-12-16T03:03:29.335Z,-6.60
2022-12-16T03:06:00.146Z,-6.70
2022-12-16T03:08:34.190Z,-6.70
2022-12-16T03:11:05.172Z,-6.60
2022-12-16T03:13:38.801Z,-6.60
2022-12-16T03:16:10.291Z,-6.60
2022-12-16T03:18:45.777Z,-6.60
2022-12-16T03:21:18.403Z,-6.60
2022-12-16T03:23:52.086Z,-6.50
2022-12-16T03:26:25.822Z,-6.70
2022-12-16T03:28:59.175Z,-6.70
2022-12-16T03:31:33.936Z,-6.80
2022-12-16T03:34:10.883Z,-6.80
2022-12-16T03:36:41.924Z,-6.80
2022-12-16T03:39:12.700Z,-6.80
2022-12-16T03:41:43.430Z,-6.80
2022-12-16T03:44:14.840Z,-6.80
2022-12-16T03:46:45.410Z,-6.80
2022-12-16T03:49:17.970Z,-6.80
2022-12-16T03:51:47.880Z,-6.80
2022-12-16T03:54:19.188Z,-6.70
2022-12-16T03:56:49.297Z,-6.70
2022-12-16T03:59:19.377Z,-6.70
2022-12-16T04:01:50.132Z,-6.70
2022-12-16T04:04:22.761Z,-6.70
2022-12-16T04:07:12.694Z,-6.70
2022-12-16T04:09:42.672Z,-6.70
2022-12-16T04:12:25.317Z,-6.60
2022-12-16T04:15:07.649Z,-6.60
2022-12-16T04:17:49.996Z,-6.60
2022-12-16T04:20:35.425Z,-6.50
2022-12-16T04:23:18.187Z,-6.50
2022-12-16T04:25:48.260Z,-6.50
2022-12-16T04:28:18.124Z,-6.40
2022-12-16T04:30:48.058Z,-6.50
2022-12-16T04:33:31.173Z,-6.40
2022-12-16T04:36:16.427Z,-6.40
2022-12-16T04:38:58.965Z,-6.40
2022-12-16T04:41:41.271Z,-6.30
2022-12-16T04:44:24.135Z,-6.30
2022-12-16T04:47:06.536Z,-6.30
2022-12-16T04:49:48.900Z,-6.30
2022-12-16T04:52:34.115Z,-6.30
2022-12-16T04:55:16.607Z,-6.30
2022-12-16T04:58:00.123Z,-6.30
2022-12-16T05:00:42.436Z,-6.30
2022-12-16T05:03:24.849Z,-6.30
2022-12-16T05:06:07.360Z,-6.30
2022-12-16T05:08:52.359Z,-6.30
2022-12-16T05:11:34.679Z,-6.30
2022-12-16T05:14:17.172Z,-6.30
2022-12-16T05:16:59.325Z,-6.30
2022-12-16T05:19:41.659Z,-6.20
2022-12-16T05:22:35.795Z,-6.20
2022-12-16T05:25:21.938Z,-6.20
2022-12-16T05:28:06.426Z,-6.30
2022-12-16T05:30:48.779Z,-6.40
2022-12-16T05:33:31.497Z,-6.30
2022-12-16T05:36:14.023Z,-6.30
2022-12-16T05:38:56.331Z,-6.20
2022-12-16T05:41:41.310Z,-6.20
2022-12-16T05:44:23.664Z,-6.30
2022-12-16T05:47:06.005Z,-6.30
2022-12-16T05:49:48.387Z,-6.40
2022-12-16T05:52:30.716Z,-6.40
2022-12-16T05:55:13.013Z,-6.40
2022-12-16T05:57:57.899Z,-6.40
2022-12-16T06:00:40.200Z,-6.40
2022-12-16T06:03:22.629Z,-6.40
2022-12-16T06:06:17.058Z,-6.40
2022-12-16T06:08:59.355Z,-6.30
2022-12-16T06:11:47.262Z,-6.30
2022-12-16T06:14:32.157Z,-6.20
2022-12-16T06:17:14.489Z,-6.20
2022-12-16T06:19:56.787Z,-6.20
2022-12-16T06:22:39.089Z,-6.30
2022-12-16T06:25:21.880Z,-6.20
2022-12-16T06:28:06.275Z,-6.20
2022-12-16T06:30:51.227Z,-6.20
2022-12-16T06:33:33.859Z,-6.20
2022-12-16T06:36:16.372Z,-6.20
2022-12-16T06:38:58.656Z,-6.20
2022-12-16T06:41:40.934Z,-6.20
2022-12-16T06:44:25.790Z,-6.10
2022-12-16T06:47:10.702Z,-6.10
2022-12-16T06:49:52.988Z,-6.10
2022-12-16T06:52:35.250Z,-6.00
2022-12-16T06:55:17.539Z,-6.10
2022-12-16T06:57:59.873Z,-6.10
2022-12-16T07:00:42.195Z,-6.10
2022-12-16T07:03:29.476Z,-6.10
2022-12-16T07:06:15.023Z,-6.00
2022-12-16T07:08:57.327Z,-6.00
2022-12-16T07:11:39.617Z,-6.00
2022-12-16T07:14:21.904Z,-6.00
2022-12-16T07:17:04.177Z,-5.90
2022-12-16T07:19:49.064Z,-5.90
2022-12-16T07:22:39.966Z,-5.90
2022-12-16T07:25:23.531Z,-5.90
2022-12-16T07:28:09.341Z,-5.90
2022-12-16T07:30:54.630Z,-5.90
2022-12-16T07:33:42.533Z,-5.80
2022-12-16T07:36:27.487Z,-5.80
2022-12-16T07:39:09.833Z,-5.80
2022-12-16T07:41:52.156Z,-5.80
2022-12-16T07:44:35.435Z,-5.80
2022-12-16T07:47:17.895Z,-5.80
2022-12-16T07:50:00.485Z,-5.80
2022-12-16T07:52:45.441Z,-5.80
2022-12-16T08:06:59.061Z,-5.50
2022-12-16T08:50:56.619Z,-4.90
2022-12-16T08:53:38.992Z,-4.90
2022-12-16T08:56:21.980Z,-4.80
2022-12-16T08:59:04.314Z,-4.70
2022-12-16T09:01:46.728Z,-4.80
2022-12-16T09:04:28.986Z,-4.60
2022-12-16T09:07:13.939Z,-4.70
2022-12-16T09:09:56.199Z,-4.60
2022-12-16T09:12:38.508Z,-4.70
2022-12-16T09:15:21.500Z,-4.70
2022-12-16T09:18:09.062Z,-4.70
2022-12-16T09:20:51.388Z,-4.70
2022-12-16T09:23:36.553Z,-4.80
2022-12-16T09:26:19.277Z,-4.80
2022-12-16T09:29:01.554Z,-4.90
2022-12-16T09:31:43.830Z,-4.80
2022-12-16T09:34:26.106Z,-4.70
2022-12-16T09:37:08.425Z,-4.70
2022-12-16T09:39:53.777Z,-4.70
2022-12-16T09:42:39.417Z,-4.80
2022-12-16T09:45:28.734Z,-4.90
2022-12-16T09:48:12.221Z,-4.90
2022-12-16T09:50:56.711Z,-4.80
2022-12-16T09:53:39.026Z,-4.70
2022-12-16T09:56:30.894Z,-4.80
2022-12-16T09:59:16.168Z,-4.70
2022-12-16T10:01:59.007Z,-4.80
2022-12-16T10:04:41.458Z,-4.80
2022-12-16T10:07:27.989Z,-4.70
2022-12-16T10:10:14.139Z,-4.60
2022-12-16T10:13:02.866Z,-4.50
2022-12-16T10:15:51.211Z,-4.50
2022-12-16T10:18:54.070Z,-4.50
2022-12-16T10:21:44.094Z,-4.40
2022-12-16T10:24:36.940Z,-4.30
2022-12-16T10:27:23.050Z,-4.30
2022-12-16T10:30:07.946Z,-4.30
2022-12-16T10:32:55.071Z,-4.30
2022-12-16T10:35:40.346Z,-4.40
2022-12-16T10:38:29.485Z,-4.40
2022-12-16T10:41:13.645Z,-4.30
2022-12-16T10:43:59.811Z,-4.20
2022-12-16T10:46:49.719Z,-4.20
2022-12-16T10:49:32.225Z,-4.10
2022-12-16T10:52:14.853Z,-4.10
2022-12-16T10:54:59.800Z,-4.00
2022-12-16T10:57:49.553Z,-4.10
2022-12-16T11:00:34.257Z,-4.30
2022-12-16T11:03:37.973Z,-4.10
2022-12-16T11:06:21.506Z,-4.00
2022-12-16T11:09:15.721Z,-4.10
2022-12-16T11:11:58.032Z,-3.90
2022-12-16T11:14:50.336Z,-3.80
2022-12-16T11:17:44.276Z,-3.60
2022-12-16T11:20:32.775Z,-3.50
2022-12-16T11:23:33.255Z,-3.60
2022-12-16T11:26:21.310Z,-3.70
2022-12-16T11:29:18.380Z,-3.80
2022-12-16T11:32:01.460Z,-3.60
2022-12-16T11:34:43.980Z,-3.60
2022-12-16T11:37:34.940Z,-3.70
2022-12-16T11:40:18.149Z,-3.80
2022-12-16T11:43:08.530Z,-3.90
2022-12-16T11:45:53.831Z,-4.00
2022-12-16T11:48:47.291Z,-4.00
2022-12-16T11:51:31.013Z,-4.00
2022-12-16T11:54:18.947Z,-4.00
2022-12-16T11:57:01.702Z,-3.90
2022-12-16T11:59:49.579Z,-3.90
2022-12-16T12:02:34.948Z,-3.90
2022-12-16T12:05:17.243Z,-3.80
2022-12-16T12:08:06.455Z,-3.90
2022-12-16T12:11:05.658Z,-3.90
2022-12-16T12:14:07.694Z,-4.10
2022-12-16T12:16:59.198Z,-4.10
2022-12-16T12:19:47.742Z,-4.20
2022-12-16T12:22:38.964Z,-4.20
2022-12-16T12:25:24.308Z,-4.30
2022-12-16T12:28:26.686Z,-4.50
2022-12-16T12:31:13.565Z,-4.60
2022-12-16T12:34:11.326Z,-4.60
2022-12-16T12:36:57.430Z,-4.50
2022-12-16T12:39:45.232Z,-4.40
2022-12-16T12:42:36.866Z,-4.40
2022-12-16T12:45:37.175Z,-4.40
2022-12-16T12:48:24.776Z,-4.40
2022-12-16T12:51:11.435Z,-4.50
2022-12-16T12:53:59.091Z,-4.50
2022-12-16T12:56:47.806Z,-4.60
2022-12-16T12:59:33.028Z,-4.60
2022-12-16T13:02:19.210Z,-4.70
2022-12-16T13:05:12.091Z,-4.60
2022-12-16T13:07:54.396Z,-4.60
2022-12-16T13:10:49.981Z,-4.70
2022-12-16T13:13:52.883Z,-4.80
2022-12-16T13:17:11.201Z,-4.60
2022-12-16T13:19:59.291Z,-4.60
2022-12-16T13:22:46.412Z,-4.60
2022-12-16T13:25:47.812Z,-4.70
2022-12-16T13:28:36.966Z,-4.60
2022-12-16T13:31:25.177Z,-4.70
2022-12-16T13:34:09.260Z,-4.70
2022-12-16T13:37:09.333Z,-4.70
2022-12-16T13:39:51.611Z,-4.60
2022-12-16T13:43:03.334Z,-4.60
2022-12-16T13:45:48.268Z,-4.60
2022-12-16T13:48:52.329Z,-4.60
2022-12-16T13:52:21.904Z,-4.70
2022-12-16T13:55:16.729Z,-4.70
2022-12-16T13:58:02.249Z,-4.60
2022-12-16T14:00:45.115Z,-4.70
2022-12-16T14:03:31.611Z,-4.70
2022-12-16T14:06:14.255Z,-4.70
2022-12-16T14:08:56.837Z,-4.70
2022-12-16T14:11:51.745Z,-4.80
2022-12-16T14:14:38.972Z,-4.80
2022-12-16T14:17:26.399Z,-4.80
2022-12-16T14:20:13.624Z,-4.70
2022-12-16T14:23:07.863Z,-4.70
2022-12-16T14:25:50.454Z,-4.80
2022-12-16T14:28:43.547Z,-4.80
2022-12-16T14:31:30.682Z,-4.80
2022-12-16T14:34:13.029Z,-4.80
2022-12-16T14:36:56.186Z,-4.90
2022-12-16T14:39:39.437Z,-4.80
2022-12-16T14:42:33.963Z,-4.90
2022-12-16T14:45:19.467Z,-4.80
2022-12-16T14:48:10.501Z,-4.80
2022-12-16T14:50:52.772Z,-4.90
2022-12-16T14:53:37.328Z,-4.80
2022-12-16T14:56:31.144Z,-4.80
2022-12-16T14:59:32.564Z,-4.80
2022-12-16T15:02:29.677Z,-4.80
2022-12-16T15:05:12.328Z,-4.80
2022-12-16T15:07:57.444Z,-4.90
2022-12-16T15:10:41.672Z,-4.80
2022-12-16T15:13:29.832Z,-4.90
2022-12-16T15:16:12.147Z,-4.80
2022-12-16T15:18:59.990Z,-4.90
2022-12-16T15:21:42.460Z,-4.90
2022-12-16T15:24:25.961Z,-4.90
2022-12-16T15:27:29.027Z,-5.00
2022-12-16T15:30:13.876Z,-5.00
2022-12-16T15:32:57.348Z,-4.90
2022-12-16T15:35:45.797Z,-4.80
2022-12-16T15:38:31.824Z,-4.80
2022-12-16T15:41:14.246Z,-4.90
2022-12-16T15:43:57.764Z,-4.90
2022-12-16T15:46:42.118Z,-4.90
2022-12-16T15:49:34.044Z,-4.80
2022-12-16T15:52:37.180Z,-4.90
2022-12-16T15:55:52.078Z,-4.80
2022-12-16T15:58:40.354Z,-4.90
2022-12-16T16:01:23.293Z,-4.90
2022-12-16T16:04:07.652Z,-4.90
2022-12-16T16:06:51.035Z,-4.90
2022-12-16T16:09:39.805Z,-4.80
2022-12-16T16:12:24.175Z,-4.90
2022-12-16T16:15:06.785Z,-4.90
2022-12-16T16:17:49.168Z,-4.80
2022-12-16T16:20:33.075Z,-4.90
2022-12-16T16:23:15.472Z,-4.90
2022-12-16T16:26:04.064Z,-4.80
2022-12-16T16:28:46.538Z,-4.80
2022-12-16T16:31:28.893Z,-4.80
2022-12-16T16:34:11.286Z,-4.80
2022-12-16T16:36:53.641Z,-4.90
2022-12-16T16:39:41.481Z,-5.00
2022-12-16T16:42:26.651Z,-4.90
2022-12-16T16:45:09.025Z,-4.80
2022-12-16T16:47:51.174Z,-4.80
2022-12-16T16:50:34.297Z,-4.80
2022-12-16T16:53:16.581Z,-4.90
2022-12-16T16:55:58.844Z,-5.00
2022-12-16T16:58:45.589Z,-4.90
2022-12-16T17:01:29.043Z,-4.90
2022-12-16T17:04:11.480Z,-4.90
2022-12-16T17:06:53.860Z,-4.80
2022-12-16T17:09:38.407Z,-5.00
2022-12-16T17:12:29.617Z,-4.80
2022-12-16T17:15:14.490Z,-4.90
2022-12-16T17:18:05.513Z,-4.90
2022-12-16T17:20:47.788Z,-4.80
2022-12-16T17:23:38.875Z,-4.80
2022-12-16T17:26:21.129Z,-4.80
2022-12-16T17:29:03.433Z,-4.90
2022-12-16T17:31:48.438Z,-4.90
2022-12-16T17:34:30.801Z,-4.90
2022-12-16T17:37:13.083Z,-4.90
2022-12-16T17:39:55.411Z,-4.80
2022-12-16T17:42:40.591Z,-4.80
2022-12-16T17:45:25.770Z,-4.80
2022-12-16T17:48:10.669Z,-4.80
2022-12-16T17:50:53.019Z,-4.80
2022-12-16T17:53:35.771Z,-4.80
2022-12-16T17:56:19.213Z,-4.80
2022-12-16T17:59:01.499Z,-4.80
2022-12-16T18:01:43.674Z,-4.70
2022-12-16T18:04:28.831Z,-4.80
2022-12-16T18:07:10.935Z,-4.90
2022-12-16T18:09:53.225Z,-4.90
2022-12-16T18:12:36.032Z,-4.70
2022-12-16T18:15:18.547Z,-4.80
2022-12-16T18:18:03.603Z,-4.60
2022-12-16T18:20:48.725Z,-4.70
2022-12-16T18:23:31.321Z,-4.70
2022-12-16T18:26:15.739Z,-4.70
2022-12-16T18:28:58.118Z,-4.80
2022-12-16T18:31:40.493Z,-4.80
2022-12-16T18:34:22.860Z,-4.80
2022-12-16T18:37:07.832Z,-4.80
2022-12-16T18:39:50.137Z,-4.80
2022-12-16T18:42:32.438Z,-4.70
2022-12-16T18:45:14.855Z,-4.80
2022-12-16T18:47:57.153Z,-4.80
2022-12-16T18:50:39.445Z,-4.90
2022-12-16T18:53:24.331Z,-4.90
2022-12-16T18:56:15.053Z,-4.90
2022-12-16T18:58:57.379Z,-4.80
2022-12-16T19:01:39.906Z,-4.80
2022-12-16T19:04:22.298Z,-4.80
2022-12-16T19:07:04.599Z,-4.80
2022-12-16T19:09:49.502Z,-4.80
2022-12-16T19:12:31.794Z,-4.80
2022-12-16T19:15:14.061Z,-4.70
2022-12-16T19:17:56.367Z,-4.80
2022-12-16T19:20:39.090Z,-4.80
2022-12-16T19:23:21.396Z,-4.80
2022-12-16T19:26:17.654Z,-4.90
2022-12-16T19:29:00.001Z,-4.90
2022-12-16T19:31:42.411Z,-5.00
2022-12-16T19:34:24.772Z,-5.00
2022-12-16T19:37:07.071Z,-5.00
2022-12-16T19:39:49.393Z,-5.00
2022-12-16T19:42:34.319Z,-4.90
2022-12-16T19:45:16.740Z,-5.00
2022-12-16T19:47:58.846Z,-4.90
2022-12-16T19:50:41.393Z,-5.00
2022-12-16T19:53:23.754Z,-5.00
2022-12-16T19:56:10.475Z,-5.00
2022-12-16T19:58:56.285Z,-4.90
2022-12-16T20:01:38.830Z,-5.00
2022-12-16T20:04:21.174Z,-5.10
2022-12-16T20:07:23.028Z,-5.10
2022-12-16T20:10:05.687Z,-5.00
2022-12-16T20:12:47.996Z,-5.00
2022-12-16T20:15:32.896Z,-5.00
2022-12-16T20:18:15.382Z,-4.80
2022-12-16T20:20:57.676Z,-4.90
2022-12-16T20:23:40.021Z,-4.90
2022-12-16T20:26:22.376Z,-4.90
2022-12-16T20:29:04.795Z,-4.90
2022-12-16T20:31:50.632Z,-4.90
2022-12-16T20:34:34.013Z,-4.80
2022-12-16T20:37:16.614Z,-4.90
2022-12-16T20:40:01.548Z,-4.80
2022-12-16T20:42:43.969Z,-4.80
2022-12-16T20:45:30.913Z,-4.80
2022-12-16T20:48:15.997Z,-4.90
2022-12-16T20:50:58.297Z,-4.90
2022-12-16T20:53:41.363Z,-4.70
2022-12-16T20:56:24.196Z,-4.90
2022-12-16T20:59:06.472Z,-4.80
2022-12-16T21:05:02.385Z,-4.90
2022-12-16T21:07:44.807Z,-4.90
2022-12-16T21:10:27.124Z,-4.90
2022-12-16T21:13:09.383Z,-4.90
2022-12-16T21:15:52.779Z,-4.90
2022-12-16T21:18:38.779Z,-4.90
2022-12-16T21:21:23.596Z,-5.00
2022-12-16T21:24:05.916Z,-4.90
2022-12-16T21:26:48.232Z,-5.00
2022-12-16T21:29:30.569Z,-4.90
2022-12-16T21:32:12.868Z,-4.90
2022-12-16T21:34:56.415Z,-4.90
2022-12-16T21:37:41.510Z,-5.00
2022-12-16T21:40:25.287Z,-5.00
2022-12-16T21:43:07.568Z,-5.00
2022-12-16T21:45:49.904Z,-5.10
2022-12-16T21:48:32.284Z,-5.00
2022-12-16T21:51:14.615Z,-5.00
2022-12-16T21:57:01.923Z,-5.10
2022-12-16T21:59:44.226Z,-5.00
2022-12-16T22:02:27.906Z,-5.10
2022-12-16T22:05:10.205Z,-5.10
2022-12-16T22:07:52.539Z,-5.00
2022-12-16T22:10:41.544Z,-5.10
2022-12-16T22:13:23.845Z,-5.20
2022-12-16T22:16:10.833Z,-5.10
2022-12-16T22:18:53.152Z,-5.20
2022-12-16T22:21:38.267Z,-5.10
2022-12-16T22:24:20.877Z,-5.20
2022-12-16T22:27:05.804Z,-5.00
2022-12-16T22:29:48.071Z,-5.10
2022-12-16T22:32:30.144Z,-5.00
2022-12-16T22:35:12.463Z,-4.90
2022-12-16T22:37:54.766Z,-5.00
2022-12-16T22:40:38.466Z,-5.20
2022-12-16T22:43:23.380Z,-5.00
2022-12-16T22:46:13.791Z,-5.10
2022-12-16T22:49:04.676Z,-5.20
2022-12-16T22:51:47.066Z,-5.30
2022-12-16T22:54:29.365Z,-5.30
2022-12-16T22:57:11.671Z,-5.10
2022-12-16T22:59:56.793Z,-5.10
2022-12-16T23:02:39.110Z,-5.20
2022-12-16T23:05:27.345Z,-5.20
2022-12-16T23:08:10.187Z,-5.20
2022-12-16T23:10:52.562Z,-5.20
2022-12-16T23:13:41.083Z,-5.30
2022-12-16T23:16:26.303Z,-5.20
2022-12-16T23:19:08.652Z,-5.10
2022-12-16T23:21:52.029Z,-5.10
2022-12-16T23:24:34.356Z,-5.20
2022-12-16T23:27:16.656Z,-5.30
2022-12-16T23:29:58.940Z,-5.40
2022-12-16T23:32:46.825Z,-5.40
2022-12-16T23:35:29.305Z,-5.40
2022-12-16T23:38:16.028Z,-5.40
2022-12-16T23:40:58.298Z,-5.40
2022-12-16T23:43:40.850Z,-5.40
2022-12-16T23:46:23.409Z,-5.50
2022-12-16T23:49:11.064Z,-5.50
2022-12-16T23:51:53.375Z,-5.40
2022-12-16T23:54:36.099Z,-5.50
2022-12-16T23:57:18.408Z,-5.50
